createdAt,value
2022-09-28T00:00:03.250Z,83.65
2022-09-28T00:02:41.934Z,84.24
2022-09-28T00:05:14.940Z,83.05
2022-09-28T00:07:44.974Z,82.51
2022-09-28T00:10:14.655Z,81.93
2022-09-28T00:12:44.246Z,80.40
2022-09-28T00:15:13.874Z,82.69
2022-09-28T00:17:46.069Z,84.01
2022-09-28T00:20:17.985Z,85.23
2022-09-28T00:22:48.209Z,86.07
2022-09-28T00:25:18.135Z,85.97
2022-09-28T00:27:52.529Z,86.62
2022-09-28T00:30:23.648Z,87.12
2022-09-28T00:32:54.542Z,87.60
2022-09-28T00:35:24.785Z,88.26
2022-09-28T00:37:55.380Z,88.88
2022-09-28T00:40:25.148Z,89.42
2022-09-28T00:42:54.975Z,89.73
2022-09-28T00:45:27.489Z,90.33
2022-09-28T00:48:01.440Z,90.86
2022-09-28T00:50:35.418Z,90.93
2022-09-28T00:53:22.965Z,90.81
2022-09-28T00:55:58.961Z,91.39
2022-09-28T00:58:33.336Z,90.84
2022-09-28T01:01:03.748Z,91.08
2022-09-28T01:03:34.936Z,91.08
2022-09-28T01:06:08.988Z,91.13
2022-09-28T01:08:41.220Z,91.65
2022-09-28T01:11:11.159Z,91.81
2022-09-28T01:13:42.786Z,91.43
2022-09-28T01:16:31.040Z,90.53
2022-09-28T01:19:47.760Z,89.90
2022-09-28T01:22:36.089Z,89.82
2022-09-28T01:25:14.717Z,88.42
2022-09-28T01:28:06.876Z,89.05
2022-09-28T01:30:59.150Z,89.14
2022-09-28T01:33:50.305Z,89.45
2022-09-28T01:36:27.628Z,89.38
2022-09-28T01:39:03.401Z,89.79
2022-09-28T01:41:37.828Z,89.10
2022-09-28T01:44:13.054Z,89.15
2022-09-28T01:46:46.880Z,88.51
2022-09-28T01:49:32.561Z,88.66
2022-09-28T01:52:09.616Z,88.60
2022-09-28T01:54:59.582Z,87.99
2022-09-28T01:57:40.629Z,87.23
2022-09-28T02:00:14.854Z,86.69
2022-09-28T02:03:10.470Z,87.23
2022-09-28T02:06:02.288Z,87.51
2022-09-28T02:08:41.723Z,87.47
2022-09-28T02:11:23.292Z,86.92
2022-09-28T02:14:02.771Z,87.38
2022-09-28T02:16:42.222Z,86.67
2022-09-28T02:19:25.150Z,86.46
2022-09-28T02:22:44.147Z,86.85
2022-09-28T02:25:46.773Z,86.24
2022-09-28T02:28:17.966Z,86.59
2022-09-28T02:30:48.172Z,86.61
2022-09-28T02:33:20.713Z,85.21
2022-09-28T02:35:51.032Z,86.14
2022-09-28T02:38:22.477Z,86.65
2022-09-28T02:41:10.695Z,86.72
2022-09-28T02:44:00.144Z,86.11
2022-09-28T02:47:06.167Z,86.07
2022-09-28T02:49:47.715Z,84.75
2022-09-28T02:52:21.307Z,85.22
2022-09-28T02:55:12.227Z,85.63
2022-09-28T02:57:59.473Z,85.71
2022-09-28T03:00:32.603Z,85.07
2022-09-28T03:03:36.345Z,85.13
2022-09-28T03:06:12.775Z,85.08
2022-09-28T03:09:15.056Z,85.27
2022-09-28T03:11:50.108Z,86.07
2022-09-28T03:14:20.820Z,86.12
2022-09-28T03:16:59.372Z,86.02
2022-09-28T03:19:38.252Z,85.46
2022-09-28T03:22:09.144Z,85.46
2022-09-28T03:24:39.287Z,85.45
2022-09-28T03:27:11.285Z,85.33
2022-09-28T03:29:41.869Z,85.71
2022-09-28T03:32:11.807Z,85.70
2022-09-28T03:34:41.811Z,86.92
2022-09-28T03:37:12.154Z,86.10
2022-09-28T03:39:42.578Z,86.63
2022-09-28T03:42:12.281Z,86.63
2022-09-28T03:44:46.581Z,86.91
2022-09-28T03:47:19.028Z,86.71
2022-09-28T03:49:49.711Z,87.83
2022-09-28T03:52:19.594Z,87.90
2022-09-28T03:54:49.768Z,87.93
2022-09-28T03:57:19.603Z,88.65
2022-09-28T03:59:49.390Z,88.42
2022-09-28T04:02:19.094Z,88.22
2022-09-28T04:04:48.848Z,88.65
2022-09-28T04:07:18.573Z,87.99
2022-09-28T04:09:48.823Z,87.92
2022-09-28T04:12:18.518Z,88.08
2022-09-28T04:14:48.460Z,88.25
2022-09-28T04:17:18.233Z,88.74
2022-09-28T04:19:48.726Z,88.36
2022-09-28T04:22:28.095Z,88.42
2022-09-28T04:24:59.090Z,87.91
2022-09-28T04:27:46.784Z,88.00
2022-09-28T04:30:17.717Z,87.83
2022-09-28T04:32:49.005Z,88.28
2022-09-28T04:35:20.130Z,88.65
2022-09-28T04:37:50.145Z,88.41
2022-09-28T04:40:19.991Z,88.36
2022-09-28T04:42:57.364Z,89.10
2022-09-28T04:45:28.616Z,88.38
2022-09-28T04:48:09.003Z,87.92
2022-09-28T04:51:11.273Z,88.20
2022-09-28T04:53:41.329Z,87.99
2022-09-28T04:56:15.854Z,88.76
2022-09-28T04:58:51.774Z,88.59
2022-09-28T05:01:25.273Z,89.31
2022-09-28T05:04:04.663Z,88.30
2022-09-28T05:06:45.132Z,89.06
2022-09-28T05:09:15.829Z,87.93
2022-09-28T05:11:45.956Z,87.76
2022-09-28T05:14:20.927Z,88.21
2022-09-28T05:16:52.195Z,89.27
2022-09-28T05:19:25.049Z,88.43
2022-09-28T05:21:59.158Z,87.88
2022-09-28T05:24:29.207Z,87.96
2022-09-28T05:26:58.985Z,88.58
2022-09-28T05:29:32.061Z,88.20
2022-09-28T05:32:20.864Z,87.62
2022-09-28T05:35:13.962Z,87.11
2022-09-28T05:37:48.646Z,87.93
2022-09-28T05:40:19.009Z,88.23
2022-09-28T05:42:54.295Z,88.75
2022-09-28T05:45:24.432Z,90.04
2022-09-28T05:47:55.048Z,89.25
2022-09-28T05:50:25.884Z,88.81
2022-09-28T05:53:04.870Z,88.93
2022-09-28T05:55:35.473Z,89.10
2022-09-28T05:58:07.879Z,89.54
2022-09-28T06:00:38.125Z,89.88
2022-09-28T06:03:11.826Z,89.92
2022-09-28T06:05:42.450Z,89.56
2022-09-28T06:08:12.714Z,89.82
2022-09-28T06:10:46.951Z,89.92
2022-09-28T06:13:17.556Z,89.96
2022-09-28T06:15:47.825Z,89.94
2022-09-28T06:18:17.862Z,90.93
2022-09-28T06:21:25.865Z,91.37
2022-09-28T06:23:57.395Z,91.25
2022-09-28T06:26:28.145Z,91.02
2022-09-28T06:28:58.734Z,91.21
2022-09-28T06:31:31.241Z,91.31
2022-09-28T06:34:03.179Z,90.72
2022-09-28T06:36:33.303Z,90.87
2022-09-28T06:39:03.295Z,90.99
2022-09-28T06:41:33.378Z,91.17
2022-09-28T06:44:14.055Z,91.21
2022-09-28T06:47:03.377Z,91.60
2022-09-28T06:49:56.372Z,92.01
2022-09-28T06:52:44.363Z,91.78
2022-09-28T06:55:35.593Z,91.53
2022-09-28T06:58:08.333Z,91.79
2022-09-28T07:00:40.328Z,91.60
2022-09-28T07:03:14.557Z,92.12
2022-09-28T07:06:07.387Z,91.04
2022-09-28T07:09:10.021Z,91.58
2022-09-28T07:12:05.947Z,91.46
2022-09-28T07:14:51.234Z,91.80
2022-09-28T07:17:21.626Z,91.86
2022-09-28T07:19:53.774Z,91.96
2022-09-28T07:22:39.485Z,91.71
2022-09-28T07:25:11.609Z,91.70
2022-09-28T07:27:40.789Z,90.98
2022-09-28T07:30:34.698Z,91.87
2022-09-28T07:33:10.831Z,92.46
2022-09-28T07:35:57.910Z,92.96
2022-09-28T07:38:31.997Z,93.39
2022-09-28T07:41:15.218Z,93.31
2022-09-28T07:43:50.964Z,93.35
2022-09-28T07:46:22.353Z,93.58
2022-09-28T07:49:02.470Z,93.75
2022-09-28T07:51:57.757Z,93.94
2022-09-28T07:54:32.309Z,94.21
2022-09-28T07:57:41.214Z,94.23
2022-09-28T08:00:25.141Z,94.08
2022-09-28T08:02:55.854Z,94.02
2022-09-28T08:05:27.292Z,93.93
2022-09-28T08:07:59.926Z,94.05
2022-09-28T08:10:31.254Z,94.25
2022-09-28T08:13:23.465Z,94.43
2022-09-28T08:16:14.257Z,94.70
2022-09-28T08:18:55.765Z,94.97
2022-09-28T08:21:44.162Z,95.23
2022-09-28T08:24:16.617Z,95.31
2022-09-28T08:26:48.264Z,95.19
2022-09-28T08:29:20.122Z,94.81
2022-09-28T08:31:52.936Z,94.39
2022-09-28T08:34:43.188Z,93.92
2022-09-28T08:37:26.175Z,93.60
2022-09-28T08:40:15.084Z,93.59
2022-09-28T08:43:01.726Z,93.47
2022-09-28T08:45:50.164Z,93.72
2022-09-28T08:49:20.980Z,93.14
2022-09-28T08:52:20.236Z,93.26
2022-09-28T08:55:28.330Z,93.26
2022-09-28T08:58:38.143Z,93.71
2022-09-28T09:01:12.840Z,94.35
2022-09-28T09:03:43.742Z,94.63
2022-09-28T09:06:35.498Z,95.03
2022-09-28T09:09:41.396Z,95.18
2022-09-28T09:12:41.297Z,95.24
2022-09-28T09:15:29.573Z,95.53
2022-09-28T09:18:31.499Z,95.43
2022-09-28T09:21:20.527Z,95.85
2022-09-28T09:23:50.417Z,95.94
2022-09-28T09:26:25.969Z,96.04
2022-09-28T09:29:08.017Z,96.26
2022-09-28T09:32:04.198Z,96.42
2022-09-28T09:35:07.999Z,96.14
2022-09-28T09:38:12.580Z,96.09
2022-09-28T09:41:33.755Z,95.78
2022-09-28T09:44:47.214Z,95.67
2022-09-28T09:47:48.332Z,95.35
2022-09-28T09:51:03.679Z,95.53
2022-09-28T09:53:37.668Z,95.14
2022-09-28T09:56:25.276Z,94.56
2022-09-28T09:59:16.727Z,94.12
2022-09-28T10:02:33.073Z,92.70
2022-09-28T10:05:13.158Z,92.07
2022-09-28T10:07:56.172Z,91.73
2022-09-28T10:10:32.892Z,91.81
2022-09-28T10:13:11.320Z,91.60
2022-09-28T10:15:43.611Z,91.60
2022-09-28T10:18:35.918Z,90.85
2022-09-28T10:21:25.080Z,90.49
2022-09-28T10:24:06.062Z,90.44
2022-09-28T10:26:49.664Z,90.68
2022-09-28T10:29:27.975Z,89.91
2022-09-28T10:31:59.208Z,89.73
2022-09-28T10:34:36.672Z,90.11
2022-09-28T10:37:15.417Z,89.81
2022-09-28T10:40:05.020Z,89.89
2022-09-28T10:42:37.571Z,89.65
2022-09-28T10:45:22.037Z,89.55
2022-09-28T10:47:52.323Z,90.46
2022-09-28T10:50:28.497Z,89.95
2022-09-28T10:53:27.481Z,88.78
2022-09-28T10:56:28.361Z,88.26
2022-09-28T10:59:25.001Z,87.51
2022-09-28T11:02:14.587Z,86.31
2022-09-28T11:04:46.196Z,85.73
2022-09-28T11:07:21.737Z,82.63
2022-09-28T11:09:53.986Z,82.22
2022-09-28T11:12:30.624Z,79.30
2022-09-28T11:15:04.616Z,81.77
2022-09-28T11:17:41.058Z,81.06
2022-09-28T11:20:27.060Z,80.43
2022-09-28T11:23:22.008Z,81.49
2022-09-28T11:26:07.095Z,81.92
2022-09-28T11:28:43.369Z,82.59
2022-09-28T11:31:30.427Z,82.20
2022-09-28T11:34:31.435Z,81.14
2022-09-28T11:38:11.485Z,74.16
2022-09-28T11:41:10.534Z,73.11
2022-09-28T11:43:55.315Z,75.14
2022-09-28T11:46:53.517Z,77.54
2022-09-28T11:49:33.299Z,78.26
2022-09-28T11:52:12.958Z,77.92
2022-09-28T11:54:49.638Z,74.45
2022-09-28T11:57:29.169Z,69.61
2022-09-28T12:00:15.046Z,66.50
2022-09-28T12:02:59.933Z,71.35
2022-09-28T12:05:35.463Z,69.73
2022-09-28T12:08:15.972Z,67.86
2022-09-28T12:11:23.982Z,70.75
2022-09-28T12:14:23.149Z,72.02
2022-09-28T12:17:06.971Z,72.41
2022-09-28T12:19:52.362Z,72.90
2022-09-28T12:22:55.486Z,70.62
2022-09-28T12:25:27.215Z,70.18
2022-09-28T12:28:03.960Z,66.97
2022-09-28T12:30:41.705Z,67.63
2022-09-28T12:33:18.809Z,63.62
2022-09-28T12:36:03.856Z,66.57
2022-09-28T12:39:23.969Z,66.31
2022-09-28T12:41:57.582Z,69.31
2022-09-28T12:44:45.757Z,73.35
2022-09-28T12:47:44.098Z,75.33
2022-09-28T12:50:41.064Z,71.53
2022-09-28T12:53:42.507Z,66.85
2022-09-28T12:56:33.493Z,64.18
2022-09-28T12:59:33.466Z,63.42
2022-09-28T13:02:24.188Z,61.37
2022-09-28T13:05:08.926Z,61.85
2022-09-28T13:07:58.812Z,57.28
2022-09-28T13:10:43.935Z,58.63
2022-09-28T13:13:16.496Z,56.37
2022-09-28T13:16:24.475Z,60.66
2022-09-28T13:19:05.327Z,63.36
2022-09-28T13:21:54.168Z,67.90
2022-09-28T13:24:34.111Z,70.34
2022-09-28T13:27:17.570Z,71.82
2022-09-28T13:29:51.455Z,69.55
2022-09-28T13:32:21.927Z,70.44
2022-09-28T13:34:52.134Z,69.79
2022-09-28T13:37:27.862Z,67.39
2022-09-28T13:40:07.138Z,67.44
2022-09-28T13:42:41.367Z,68.47
2022-09-28T13:45:22.576Z,67.63
2022-09-28T13:48:01.463Z,63.44
2022-09-28T13:50:52.055Z,63.17
2022-09-28T13:53:52.487Z,64.17
2022-09-28T13:56:59.087Z,66.37
2022-09-28T13:59:31.744Z,65.92
2022-09-28T14:02:34.983Z,68.76
2022-09-28T14:05:28.407Z,71.06
2022-09-28T14:08:10.352Z,72.38
2022-09-28T14:10:59.300Z,70.46
2022-09-28T14:13:44.594Z,69.45
2022-09-28T14:16:21.709Z,67.36
2022-09-28T14:19:21.955Z,66.35
2022-09-28T14:22:25.828Z,63.99
2022-09-28T14:25:22.916Z,61.44
2022-09-28T14:28:10.758Z,59.62
2022-09-28T14:30:43.855Z,60.79
2022-09-28T14:33:18.939Z,60.37
2022-09-28T14:36:03.127Z,59.76
2022-09-28T14:39:06.541Z,60.72
2022-09-28T14:41:43.043Z,60.09
2022-09-28T14:44:20.282Z,61.87
2022-09-28T14:46:50.315Z,61.66
2022-09-28T14:49:24.326Z,60.71
2022-09-28T14:51:59.944Z,59.03
2022-09-28T14:54:53.014Z,61.04
2022-09-28T14:57:29.706Z,63.34
2022-09-28T15:00:01.097Z,61.91
2022-09-28T15:02:39.530Z,61.84
2022-09-28T15:05:25.420Z,62.29
2022-09-28T15:07:56.337Z,61.71
2022-09-28T15:10:33.950Z,63.97
2022-09-28T15:13:07.246Z,61.03
2022-09-28T15:15:44.309Z,61.83
2022-09-28T15:18:43.960Z,56.78
2022-09-28T15:21:15.044Z,59.49
2022-09-28T15:23:46.509Z,63.72
2022-09-28T15:26:28.744Z,62.88
2022-09-28T15:28:59.733Z,58.35
2022-09-28T15:31:32.509Z,60.41
2022-09-28T15:34:20.697Z,60.96
2022-09-28T15:36:51.113Z,61.40
2022-09-28T15:39:35.183Z,63.12
2022-09-28T15:42:07.208Z,65.29
2022-09-28T15:44:39.272Z,62.80
2022-09-28T15:47:17.852Z,64.52
2022-09-28T15:50:28.216Z,65.93
2022-09-28T15:53:01.125Z,65.98
2022-09-28T15:55:34.602Z,66.21
2022-09-28T15:58:16.846Z,64.96
2022-09-28T16:00:49.210Z,68.24
2022-09-28T16:03:19.353Z,69.16
2022-09-28T16:06:10.275Z,70.78
2022-09-28T16:08:45.999Z,71.81
2022-09-28T16:11:27.285Z,71.65
2022-09-28T16:14:08.384Z,69.46
2022-09-28T16:16:48.983Z,69.28
2022-09-28T16:19:34.055Z,65.99
2022-09-28T16:22:09.664Z,65.35
2022-09-28T16:24:43.144Z,67.85
2022-09-28T16:27:42.038Z,62.35
2022-09-28T16:30:18.456Z,63.15
2022-09-28T16:33:04.468Z,62.95
2022-09-28T16:35:52.136Z,61.05
2022-09-28T16:38:22.563Z,58.92
2022-09-28T16:40:59.004Z,58.82
2022-09-28T16:43:32.034Z,61.71
2022-09-28T16:46:10.334Z,56.72
2022-09-28T16:48:49.638Z,61.46
2022-09-28T16:51:21.609Z,62.05
2022-09-28T16:54:09.911Z,60.73
2022-09-28T16:56:40.036Z,62.01
2022-09-28T16:59:13.846Z,59.19
2022-09-28T17:01:44.813Z,56.55
2022-09-28T17:04:14.566Z,53.99
2022-09-28T17:06:44.721Z,55.57
2022-09-28T17:09:14.496Z,55.64
2022-09-28T17:11:44.537Z,55.63
2022-09-28T17:14:15.097Z,56.65
2022-09-28T17:17:07.460Z,57.78
2022-09-28T17:19:37.405Z,58.68
2022-09-28T17:22:09.074Z,58.00
2022-09-28T17:24:39.513Z,60.66
2022-09-28T17:27:13.606Z,58.81
2022-09-28T17:29:43.664Z,55.68
2022-09-28T17:32:20.389Z,51.23
2022-09-28T17:35:00.722Z,51.73
2022-09-28T17:37:37.347Z,51.36
2022-09-28T17:40:33.663Z,52.63
2022-09-28T17:43:06.803Z,50.03
2022-09-28T17:45:42.119Z,48.24
2022-09-28T17:48:19.303Z,50.33
2022-09-28T17:50:49.405Z,49.00
2022-09-28T17:53:19.777Z,49.46
2022-09-28T17:55:49.459Z,49.11
2022-09-28T17:58:22.202Z,49.26
2022-09-28T18:00:53.739Z,49.84
2022-09-28T18:03:25.503Z,50.92
2022-09-28T18:06:10.429Z,50.65
2022-09-28T18:08:40.752Z,49.63
2022-09-28T18:11:10.925Z,50.92
2022-09-28T18:13:40.843Z,50.27
2022-09-28T18:16:11.731Z,50.52
2022-09-28T18:18:42.152Z,49.73
2022-09-28T18:21:11.937Z,51.62
2022-09-28T18:23:41.749Z,50.85
2022-09-28T18:26:15.831Z,52.79
2022-09-28T18:28:45.839Z,53.26
2022-09-28T18:31:17.421Z,53.88
2022-09-28T18:36:37.279Z,57.13
2022-09-28T18:39:07.453Z,55.47
2022-09-28T18:41:37.333Z,57.28
2022-09-28T18:44:07.050Z,58.97
2022-09-28T18:46:37.636Z,59.57
2022-09-28T18:49:07.503Z,60.11
2022-09-28T18:51:37.284Z,60.67
2022-09-28T18:54:08.416Z,61.18
2022-09-28T18:56:39.180Z,61.85
2022-09-28T18:59:21.005Z,61.45
2022-09-28T19:01:51.190Z,63.15
2022-09-28T19:04:21.673Z,62.41
2022-09-28T19:06:53.393Z,63.31
2022-09-28T19:09:25.884Z,63.50
2022-09-28T19:11:56.008Z,64.50
2022-09-28T19:14:26.237Z,64.00
2022-09-28T19:16:56.443Z,63.96
2022-09-28T19:19:26.177Z,63.97
2022-09-28T19:21:55.907Z,65.81
2022-09-28T19:24:26.745Z,65.77
2022-09-28T19:26:56.461Z,64.34
2022-09-28T19:29:26.209Z,67.28
2022-09-28T19:31:57.834Z,67.94
2022-09-28T19:34:31.044Z,68.26
2022-09-28T19:37:05.069Z,68.74
2022-09-28T19:39:35.735Z,67.76
2022-09-28T19:42:05.563Z,66.95
2022-09-28T19:44:36.820Z,67.15
2022-09-28T19:47:11.121Z,67.83
2022-09-28T19:49:42.740Z,67.39
2022-09-28T19:52:17.745Z,70.56
2022-09-28T19:54:55.427Z,74.06
2022-09-28T19:57:28.792Z,77.49
2022-09-28T20:00:02.481Z,78.98
2022-09-28T20:02:37.028Z,80.55
2022-09-28T20:05:07.372Z,80.29
2022-09-28T20:07:37.916Z,80.23
2022-09-28T20:10:08.263Z,80.46
2022-09-28T20:12:38.254Z,79.67
2022-09-28T20:15:10.258Z,79.51
2022-09-28T20:17:40.433Z,79.83
2022-09-28T20:20:10.359Z,82.21
2022-09-28T20:22:40.024Z,83.51
2022-09-28T20:25:11.093Z,84.66
2022-09-28T20:27:41.171Z,83.95
2022-09-28T20:30:12.330Z,84.64
2022-09-28T20:32:45.058Z,84.57
2022-09-28T20:35:30.435Z,83.13
2022-09-28T20:38:10.185Z,83.24
2022-09-28T20:40:42.426Z,83.82
2022-09-28T20:43:12.517Z,82.94
2022-09-28T20:45:42.329Z,81.79
2022-09-28T20:48:11.997Z,82.83
2022-09-28T20:50:43.754Z,82.02
2022-09-28T20:53:13.819Z,83.34
2022-09-28T20:55:43.479Z,83.03
2022-09-28T20:58:13.130Z,82.14
2022-09-28T21:00:43.036Z,82.20
2022-09-28T21:03:13.225Z,81.13
2022-09-28T21:05:42.863Z,82.15
2022-09-28T21:08:12.858Z,82.97
2022-09-28T21:10:45.672Z,82.01
2022-09-28T21:13:15.862Z,81.89
2022-09-28T21:15:45.640Z,82.38
2022-09-28T21:18:15.572Z,82.57
2022-09-28T21:20:52.733Z,83.15
2022-09-28T21:23:24.884Z,82.02
2022-09-28T21:26:13.584Z,80.36
2022-09-28T21:28:45.829Z,79.28
2022-09-28T21:31:16.121Z,79.53
2022-09-28T21:33:45.880Z,79.01
2022-09-28T21:36:15.935Z,78.97
2022-09-28T21:38:45.856Z,79.88
2022-09-28T21:41:15.962Z,80.03
2022-09-28T21:43:47.116Z,79.71
2022-09-28T21:46:18.583Z,80.36
2022-09-28T21:48:52.501Z,80.49
2022-09-28T21:51:22.957Z,80.60
2022-09-28T21:53:52.689Z,81.20
2022-09-28T21:56:24.149Z,81.57
2022-09-28T21:58:54.885Z,81.25
2022-09-28T22:01:27.150Z,80.79
2022-09-28T22:03:58.472Z,80.45
2022-09-28T22:06:31.993Z,79.85
2022-09-28T22:09:02.604Z,80.83
2022-09-28T22:11:32.283Z,79.85
2022-09-28T22:14:01.914Z,79.90
2022-09-28T22:16:32.895Z,80.25
2022-09-28T22:19:03.167Z,79.52
2022-09-28T22:21:35.981Z,79.38
2022-09-28T22:24:08.555Z,80.46
2022-09-28T22:26:40.599Z,78.96
2022-09-28T22:29:11.086Z,79.38
2022-09-28T22:31:42.381Z,79.44
2022-09-28T22:34:12.547Z,79.32
2022-09-28T22:36:42.269Z,79.39
2022-09-28T22:39:12.240Z,79.28
2022-09-28T22:41:43.825Z,79.91
2022-09-28T22:44:14.062Z,79.26
2022-09-28T22:46:45.102Z,79.28
2022-09-28T22:49:15.558Z,79.03
2022-09-28T22:51:45.410Z,79.03
2022-09-28T22:54:18.314Z,78.83
2022-09-28T22:56:48.539Z,78.64
2022-09-28T22:59:17.791Z,77.88
2022-09-28T23:01:49.011Z,79.08
2022-09-28T23:04:18.869Z,77.69
2022-09-28T23:06:48.711Z,76.93
2022-09-28T23:09:18.148Z,77.15
2022-09-28T23:11:47.916Z,77.73
2022-09-28T23:14:17.876Z,77.73
2022-09-28T23:16:47.093Z,77.68
2022-09-28T23:19:16.775Z,77.52
2022-09-28T23:21:47.874Z,78.96
2022-09-28T23:24:18.338Z,77.83
2022-09-28T23:26:48.388Z,77.53
2022-09-28T23:29:20.252Z,77.85
2022-09-28T23:31:50.595Z,78.10
2022-09-28T23:34:21.206Z,78.57
2022-09-28T23:36:53.973Z,78.01
2022-09-28T23:39:23.825Z,78.30
2022-09-28T23:41:53.907Z,78.60
2022-09-28T23:44:23.716Z,77.96
2022-09-28T23:46:53.024Z,77.59
2022-09-28T23:49:22.961Z,78.24
2022-09-28T23:51:52.797Z,78.14
2022-09-28T23:54:22.512Z,78.57
2022-09-28T23:56:51.839Z,78.07
2022-09-28T23:59:21.472Z,78.25
